Time;durP1;ratioP1;P1;durP2;ratioP2;P2;SDS_P1;SDS_P2;PMS_P1;PMS_P2;Temp;Humidity;BMP_temperature;BMP_pressure;BME280_temperature;BME280_humidity;BME280_pressure;Samples;Min_cycle;Max_cycle;Signal;HPM_P1;HPM_P2
2023/01/22 00:00:15;;;;;;;12.20;7.60;;;2.50;99.90;;;;;;7386514;19;20157;-69
2023/01/22 00:02:40;;;;;;;12.80;7.87;;;2.50;99.90;;;;;;7390098;19;20433;-71
2023/01/22 00:05:07;;;;;;;12.70;7.73;;;2.60;99.90;;;;;;7389316;19;20131;-71
2023/01/22 00:07:33;;;;;;;11.27;7.53;;;2.70;99.90;;;;;;7387500;19;20160;-70
2023/01/22 00:09:58;;;;;;;11.20;7.30;;;2.80;99.90;;;;;;7388690;19;20126;-71
2023/01/22 00:12:25;;;;;;;12.50;7.53;;;2.70;99.90;;;;;;7388759;19;20131;-70
2023/01/22 00:14:51;;;;;;;12.67;7.50;;;2.70;99.90;;;;;;7383657;19;20131;-71
2023/01/22 00:17:17;;;;;;;12.63;7.67;;;2.70;99.90;;;;;;7390418;19;20145;-70
2023/01/22 00:19:43;;;;;;;12.30;7.53;;;2.80;99.90;;;;;;7385129;19;20467;-71
2023/01/22 00:22:10;;;;;;;12.10;7.80;;;2.70;99.90;;;;;;7387893;19;20151;-70
2023/01/22 00:24:36;;;;;;;11.73;7.03;;;2.80;99.90;;;;;;7385362;19;20151;-71
2023/01/22 00:27:02;;;;;;;11.50;7.47;;;2.90;99.90;;;;;;7389070;19;20138;-71
2023/01/22 00:29:27;;;;;;;12.43;7.43;;;2.90;99.90;;;;;;7390532;19;20135;-70
2023/01/22 00:31:53;;;;;;;11.67;7.83;;;2.90;99.90;;;;;;7391206;19;20235;-70
2023/01/22 00:34:19;;;;;;;13.47;7.63;;;2.90;99.90;;;;;;7387668;19;20142;-71
2023/01/22 00:36:44;;;;;;;11.57;7.53;;;2.70;99.90;;;;;;7388178;19;20131;-70
2023/01/22 00:39:10;;;;;;;12.77;7.40;;;2.90;99.90;;;;;;7388830;19;20163;-70
2023/01/22 00:41:36;;;;;;;10.97;7.10;;;2.90;99.90;;;;;;7390437;19;20595;-70
2023/01/22 00:44:02;;;;;;;12.10;7.70;;;2.90;99.90;;;;;;7387936;19;20130;-70
2023/01/22 00:46:28;;;;;;;11.90;6.93;;;3.00;99.90;;;;;;7390007;19;20154;-72
2023/01/22 00:48:53;;;;;;;11.83;7.43;;;2.90;99.90;;;;;;7387286;19;20165;-69
2023/01/22 00:51:19;;;;;;;12.70;7.83;;;3.00;99.90;;;;;;7394174;19;20188;-71
2023/01/22 00:53:45;;;;;;;11.87;7.33;;;2.90;99.90;;;;;;7392220;19;20141;-70
2023/01/22 00:56:12;;;;;;;11.77;6.93;;;2.80;99.90;;;;;;7395446;19;20147;-71
2023/01/22 00:58:38;;;;;;;10.93;7.00;;;2.90;99.90;;;;;;7395707;19;20131;-71
2023/01/22 01:01:05;;;;;;;10.40;6.90;;;2.90;99.90;;;;;;7393077;19;20161;-71
2023/01/22 01:03:31;;;;;;;11.30;6.30;;;2.90;99.90;;;;;;7395005;19;20555;-70
2023/01/22 01:06:06;;;;;;;12.53;7.27;;;3.00;99.90;;;;;;7395232;19;20586;-70
2023/01/22 01:08:35;;;;;;;10.40;7.13;;;2.80;99.90;;;;;;7394094;19;20610;-73
2023/01/22 01:11:04;;;;;;;12.97;6.67;;;2.90;99.90;;;;;;7393417;19;20228;-71
2023/01/22 01:13:32;;;;;;;10.13;7.13;;;2.90;99.90;;;;;;7394619;19;20691;-71
2023/01/22 01:16:13;;;;;;;10.77;6.83;;;3.00;99.90;;;;;;7394239;19;20143;-71
2023/01/22 01:18:38;;;;;;;10.27;6.83;;;2.90;99.90;;;;;;7394534;19;20138;-71
2023/01/22 01:21:06;;;;;;;11.70;7.33;;;3.00;99.90;;;;;;7390488;19;20160;-71
2023/01/22 01:23:32;;;;;;;12.87;7.43;;;2.90;99.90;;;;;;7394614;19;20146;-70
2023/01/22 01:25:58;;;;;;;12.20;8.20;;;2.90;99.90;;;;;;7396074;19;20146;-71
2023/01/22 01:28:24;;;;;;;12.70;7.97;;;3.00;99.90;;;;;;7393739;19;20600;-70
2023/01/22 01:30:50;;;;;;;11.17;7.03;;;3.00;99.90;;;;;;7393450;19;20153;-70
2023/01/22 01:33:16;;;;;;;11.93;6.70;;;2.90;99.90;;;;;;7395155;19;20143;-71
2023/01/22 01:35:42;;;;;;;14.00;7.63;;;2.90;99.90;;;;;;7394477;19;20177;-70
2023/01/22 01:38:08;;;;;;;11.00;7.23;;;2.90;99.90;;;;;;7394112;19;20154;-69
2023/01/22 01:40:34;;;;;;;10.23;6.87;;;2.50;99.90;;;;;;7396325;19;20139;-70
2023/01/22 01:43:00;;;;;;;14.83;7.60;;;2.70;99.90;;;;;;7392725;19;20166;-71
2023/01/22 01:45:30;;;;;;;11.33;7.43;;;2.90;99.90;;;;;;7393984;19;20599;-69
2023/01/22 01:48:01;;;;;;;11.23;7.50;;;2.90;99.90;;;;;;7396217;19;20587;-71
2023/01/22 01:50:27;;;;;;;10.40;6.60;;;3.00;99.90;;;;;;7395113;19;20619;-71
2023/01/22 01:52:55;;;;;;;10.87;6.87;;;3.00;99.90;;;;;;7393118;19;20146;-71
2023/01/22 01:55:28;;;;;;;11.57;7.70;;;2.90;99.90;;;;;;7395319;19;20143;-70
2023/01/22 01:57:58;;;;;;;11.30;6.90;;;3.00;99.90;;;;;;7394239;19;20296;-70
2023/01/22 02:00:27;;;;;;;11.83;7.07;;;3.00;99.90;;;;;;7394270;19;20155;-70
2023/01/22 02:02:53;;;;;;;10.40;6.80;;;3.00;99.90;;;;;;7390789;19;20135;-70
2023/01/22 02:05:20;;;;;;;11.97;7.40;;;3.10;99.90;;;;;;7393741;19;20152;-70
2023/01/22 02:07:46;;;;;;;11.13;7.27;;;3.10;99.90;;;;;;7394707;19;20138;-70
2023/01/22 02:10:15;;;;;;;12.87;6.90;;;3.10;99.90;;;;;;7392251;19;20146;-71
2023/01/22 02:12:40;;;;;;;11.47;7.40;;;3.20;99.90;;;;;;7392743;19;20142;-71
2023/01/22 02:15:08;;;;;;;9.50;6.77;;;3.10;99.90;;;;;;7390353;19;20135;-70
2023/01/22 02:17:33;;;;;;;9.90;6.30;;;3.10;99.90;;;;;;7394080;19;20145;-71
2023/01/22 02:19:59;;;;;;;10.73;6.63;;;3.10;99.90;;;;;;7392934;19;20194;-70
2023/01/22 02:22:29;;;;;;;10.90;6.97;;;3.10;99.90;;;;;;7393773;19;20139;-71
2023/01/22 02:24:55;;;;;;;10.43;7.17;;;3.10;99.90;;;;;;7390880;19;20167;-70
2023/01/22 02:27:21;;;;;;;11.53;7.03;;;3.10;99.90;;;;;;7390839;19;20148;-71
2023/01/22 02:29:47;;;;;;;11.30;6.77;;;2.80;99.90;;;;;;7394702;19;20198;-71
2023/01/22 02:32:13;;;;;;;12.87;7.13;;;3.00;99.90;;;;;;7393433;19;20143;-70
2023/01/22 02:34:39;;;;;;;11.50;7.00;;;3.00;99.90;;;;;;7390250;19;20519;-71
2023/01/22 02:37:05;;;;;;;10.23;6.90;;;3.30;99.90;;;;;;7389184;19;20126;-71
2023/01/22 02:39:31;;;;;;;11.60;7.20;;;3.20;99.90;;;;;;7395727;19;20138;-70
2023/01/22 02:41:57;;;;;;;11.10;6.87;;;3.10;99.90;;;;;;7391939;19;20123;-70
2023/01/22 02:44:23;;;;;;;12.13;7.00;;;3.00;99.90;;;;;;7394141;19;20897;-70
2023/01/22 02:46:48;;;;;;;11.17;7.03;;;3.10;99.90;;;;;;7391841;19;20143;-70
2023/01/22 02:49:14;;;;;;;11.37;7.33;;;3.20;99.90;;;;;;7392946;19;20127;-71
2023/01/22 02:51:40;;;;;;;8.87;6.60;;;3.20;99.90;;;;;;7392974;19;20129;-71
2023/01/22 02:54:06;;;;;;;9.17;6.33;;;3.20;99.90;;;;;;7391705;19;20473;-69
2023/01/22 02:56:33;;;;;;;8.17;6.10;;;3.20;99.90;;;;;;7393872;19;20229;-70
2023/01/22 02:59:00;;;;;;;10.67;6.70;;;3.20;99.90;;;;;;7392328;19;20202;-68
2023/01/22 03:01:25;;;;;;;10.53;6.63;;;2.80;99.90;;;;;;7390600;19;20178;-69
2023/01/22 03:03:57;;;;;;;10.23;7.07;;;3.00;99.90;;;;;;7391039;19;20208;-70
2023/01/22 03:06:26;;;;;;;11.77;7.57;;;3.20;99.90;;;;;;7391660;19;20143;-70
2023/01/22 03:08:54;;;;;;;10.63;6.80;;;3.20;99.90;;;;;;7390790;19;20146;-69
2023/01/22 03:11:20;;;;;;;11.33;7.37;;;3.20;99.90;;;;;;7390674;19;20154;-70
2023/01/22 03:22:00;;;;;;;11.50;7.30;;;3.20;99.90;;;;;;7391643;19;20131;-70
2023/01/22 03:24:26;;;;;;;12.13;7.83;;;3.10;99.90;;;;;;7391988;19;20135;-71
2023/01/22 03:26:53;;;;;;;11.57;7.60;;;3.10;99.90;;;;;;7392291;19;20474;-70
2023/01/22 03:29:19;;;;;;;11.20;7.57;;;3.20;99.90;;;;;;7391451;19;20146;-71
2023/01/22 03:31:47;;;;;;;12.03;7.80;;;3.20;99.90;;;;;;7389912;19;20483;-70
2023/01/22 03:34:20;;;;;;;11.47;7.73;;;3.10;99.90;;;;;;7388059;19;20142;-70
2023/01/22 03:36:46;;;;;;;11.17;7.57;;;3.10;99.90;;;;;;7389770;19;20157;-70
2023/01/22 03:39:13;;;;;;;11.80;7.23;;;3.20;99.90;;;;;;7393283;19;20205;-70
2023/01/22 03:41:39;;;;;;;12.00;7.60;;;3.30;99.90;;;;;;7392433;19;20670;-70
2023/01/22 03:44:10;;;;;;;10.63;7.17;;;3.30;99.90;;;;;;7389455;19;20138;-70
2023/01/22 03:46:36;;;;;;;10.83;7.13;;;3.30;99.90;;;;;;7390602;19;20130;-71
2023/01/22 03:49:02;;;;;;;9.93;7.07;;;3.30;99.90;;;;;;7393585;19;20474;-72
2023/01/22 03:51:28;;;;;;;12.20;7.63;;;3.10;99.90;;;;;;7390136;19;20146;-71
2023/01/22 03:53:54;;;;;;;10.50;6.80;;;3.10;99.90;;;;;;7387908;19;20146;-69
2023/01/22 03:56:22;;;;;;;12.03;7.40;;;3.10;99.90;;;;;;7390870;19;20583;-71
2023/01/22 03:58:49;;;;;;;10.07;6.37;;;3.20;99.90;;;;;;7389408;19;20158;-70
2023/01/22 04:01:20;;;;;;;11.80;7.60;;;3.10;99.90;;;;;;7387972;19;20178;-70
2023/01/22 04:03:46;;;;;;;10.47;7.47;;;3.10;99.90;;;;;;7389575;19;20218;-71
2023/01/22 04:06:12;;;;;;;12.30;8.00;;;3.10;99.90;;;;;;7388421;19;20729;-70
2023/01/22 04:08:41;;;;;;;11.90;7.93;;;3.10;99.90;;;;;;7392841;19;20466;-70
2023/01/22 04:11:07;;;;;;;10.57;6.90;;;3.20;99.90;;;;;;7388688;19;20126;-72
2023/01/22 04:13:35;;;;;;;11.30;7.50;;;3.30;99.90;;;;;;7391368;19;20145;-71
2023/01/22 04:16:01;;;;;;;10.27;6.97;;;3.30;99.90;;;;;;7389059;19;20583;-70
2023/01/22 04:18:27;;;;;;;9.70;6.77;;;3.30;99.90;;;;;;7390701;19;20150;-71
2023/01/22 04:20:53;;;;;;;10.77;7.50;;;3.30;99.90;;;;;;7388404;19;20655;-71
2023/01/22 04:23:21;;;;;;;12.87;7.23;;;3.30;99.90;;;;;;7391051;19;20146;-71
2023/01/22 04:25:47;;;;;;;10.83;7.57;;;3.30;99.90;;;;;;7387114;19;20761;-70
2023/01/22 04:28:14;;;;;;;9.70;6.77;;;3.20;99.90;;;;;;7389909;19;20134;-70
2023/01/22 04:30:41;;;;;;;12.20;7.00;;;3.30;99.90;;;;;;7388964;19;20157;-70
2023/01/22 04:33:07;;;;;;;11.20;6.53;;;3.30;99.90;;;;;;7386969;19;20151;-70
2023/01/22 04:35:34;;;;;;;10.17;6.73;;;3.20;99.90;;;;;;7390725;19;20144;-70
2023/01/22 04:38:01;;;;;;;10.77;7.57;;;3.10;99.90;;;;;;7389503;19;20142;-70
2023/01/22 04:40:27;;;;;;;10.70;7.70;;;3.20;99.90;;;;;;7389069;19;20134;-71
2023/01/22 04:42:53;;;;;;;10.40;7.60;;;3.20;99.90;;;;;;7390074;19;20139;-71
2023/01/22 04:45:19;;;;;;;11.53;7.40;;;3.20;99.90;;;;;;7388356;19;20172;-70
2023/01/22 04:47:47;;;;;;;11.77;7.83;;;3.20;99.90;;;;;;7390354;19;20757;-71
2023/01/22 04:50:22;;;;;;;11.00;7.17;;;3.20;99.90;;;;;;7388057;19;20178;-71
2023/01/22 04:52:52;;;;;;;10.17;7.63;;;3.30;99.90;;;;;;7388526;19;20602;-71
2023/01/22 04:55:18;;;;;;;9.47;6.40;;;2.80;99.90;;;;;;7385678;19;20194;-71
2023/01/22 04:57:43;;;;;;;13.27;7.87;;;3.10;99.90;;;;;;7388651;19;20179;-69
2023/01/22 05:00:11;;;;;;;11.10;7.20;;;3.30;99.90;;;;;;7386590;19;20147;-71
2023/01/22 05:02:37;;;;;;;13.17;7.93;;;3.30;99.90;;;;;;7390096;19;20131;-71
2023/01/22 05:05:05;;;;;;;12.07;7.80;;;3.30;99.90;;;;;;7389483;19;20147;-70
2023/01/22 05:07:30;;;;;;;11.00;7.07;;;3.30;99.90;;;;;;7387870;19;21044;-70
2023/01/22 05:09:56;;;;;;;11.90;7.50;;;3.30;99.90;;;;;;7387882;19;20167;-70
2023/01/22 05:12:22;;;;;;;11.70;7.27;;;3.30;99.90;;;;;;7387686;19;20205;-71
2023/01/22 05:14:48;;;;;;;12.53;7.77;;;3.20;99.90;;;;;;7386311;19;20135;-71
2023/01/22 05:17:13;;;;;;;13.27;7.70;;;3.30;99.90;;;;;;7388633;19;20738;-69
2023/01/22 05:19:39;;;;;;;10.93;7.30;;;3.40;99.90;;;;;;7390368;19;20127;-71
2023/01/22 05:22:05;;;;;;;11.70;7.53;;;3.30;99.90;;;;;;7388234;19;20149;-70
2023/01/22 05:24:31;;;;;;;11.30;7.30;;;3.30;99.90;;;;;;7387778;19;20632;-70
2023/01/22 05:26:57;;;;;;;14.17;7.93;;;3.40;99.90;;;;;;7388010;19;20135;-70
2023/01/22 05:29:24;;;;;;;13.13;7.90;;;3.40;99.90;;;;;;7388115;19;20127;-70
2023/01/22 05:31:57;;;;;;;12.30;7.23;;;3.30;99.90;;;;;;7385877;19;20134;-71
2023/01/22 05:34:24;;;;;;;11.83;7.43;;;3.40;99.90;;;;;;7385349;19;20141;-69
2023/01/22 05:36:49;;;;;;;11.43;7.57;;;3.40;99.90;;;;;;7388479;19;20146;-69
2023/01/22 05:39:16;;;;;;;11.77;7.33;;;3.40;99.90;;;;;;7396395;19;20142;-70
2023/01/22 05:41:42;;;;;;;11.87;7.93;;;3.40;99.90;;;;;;7393819;19;20172;-70
2023/01/22 05:44:12;;;;;;;11.53;7.87;;;3.40;99.90;;;;;;7392926;19;20146;-70
2023/01/22 05:46:39;;;;;;;14.47;8.17;;;3.30;99.90;;;;;;7393659;19;20134;-70
2023/01/22 05:49:05;;;;;;;12.47;7.67;;;3.40;99.90;;;;;;7393517;19;20126;-70
2023/01/22 05:51:31;;;;;;;11.43;7.40;;;3.40;99.90;;;;;;7392176;19;20142;-70
2023/01/22 05:53:57;;;;;;;11.20;7.27;;;3.30;99.90;;;;;;7392208;19;20190;-69
2023/01/22 05:56:22;;;;;;;12.87;7.90;;;3.40;99.90;;;;;;7394024;19;20127;-69
2023/01/22 05:58:49;;;;;;;13.17;7.83;;;3.50;99.90;;;;;;7392350;19;20127;-70
2023/01/22 06:01:15;;;;;;;12.90;8.10;;;3.50;99.90;;;;;;7389712;19;20603;-70
2023/01/22 06:03:40;;;;;;;11.70;7.73;;;3.10;99.90;;;;;;7395369;19;20134;-70
2023/01/22 06:06:10;;;;;;;11.93;7.77;;;3.10;99.90;;;;;;7392034;19;20149;-71
2023/01/22 06:08:36;;;;;;;11.37;8.07;;;3.20;99.90;;;;;;7394468;19;20131;-71
2023/01/22 06:11:04;;;;;;;14.27;8.80;;;3.30;99.90;;;;;;7390922;19;20145;-71
2023/01/22 06:13:31;;;;;;;12.87;8.60;;;3.40;99.90;;;;;;7392549;19;20150;-71
2023/01/22 06:15:57;;;;;;;10.97;7.50;;;3.40;99.90;;;;;;7392182;19;20143;-70
2023/01/22 06:18:24;;;;;;;12.50;7.87;;;3.40;99.90;;;;;;7394059;19;20144;-69
2023/01/22 06:20:50;;;;;;;13.70;8.50;;;3.20;99.90;;;;;;7388534;19;20174;-70
2023/01/22 06:23:16;;;;;;;12.93;8.47;;;3.10;99.90;;;;;;7392215;19;20134;-69
2023/01/22 06:25:42;;;;;;;13.20;7.60;;;3.10;99.90;;;;;;7392436;19;20149;-71
2023/01/22 06:28:08;;;;;;;12.23;8.40;;;3.20;99.90;;;;;;7392504;19;20142;-70
2023/01/22 06:30:35;;;;;;;12.43;8.03;;;2.80;99.90;;;;;;7392607;19;20238;-70
2023/01/22 06:33:01;;;;;;;12.27;7.90;;;3.00;99.90;;;;;;7393627;19;20167;-69
2023/01/22 06:35:27;;;;;;;11.90;8.20;;;3.40;99.90;;;;;;7391372;19;20571;-70
2023/01/22 06:37:53;;;;;;;11.40;7.93;;;3.30;99.90;;;;;;7391898;19;20142;-70
2023/01/22 06:40:18;;;;;;;13.00;8.63;;;3.30;99.90;;;;;;7392542;19;20151;-70
2023/01/22 06:42:44;;;;;;;15.10;8.90;;;3.40;99.90;;;;;;7390883;19;20776;-70
2023/01/22 06:45:10;;;;;;;15.63;9.00;;;3.40;99.90;;;;;;7391416;19;20481;-70
2023/01/22 06:47:36;;;;;;;15.50;9.73;;;3.50;99.90;;;;;;7394609;19;20138;-70
2023/01/22 06:50:02;;;;;;;14.10;9.03;;;3.20;99.90;;;;;;7391618;19;20179;-70
2023/01/22 06:52:28;;;;;;;13.93;8.30;;;2.90;99.90;;;;;;7394268;19;20139;-71
2023/01/22 06:54:53;;;;;;;14.67;9.00;;;2.80;99.90;;;;;;7390199;19;20512;-70
2023/01/22 06:57:19;;;;;;;13.53;9.00;;;2.80;99.90;;;;;;7392776;19;20141;-70
2023/01/22 06:59:45;;;;;;;14.67;9.33;;;3.10;99.90;;;;;;7390525;19;20611;-70
2023/01/22 07:02:18;;;;;;;15.17;9.90;;;3.20;99.90;;;;;;7392624;19;20131;-71
2023/01/22 07:04:44;;;;;;;14.73;9.07;;;3.30;99.90;;;;;;7391611;19;20139;-71
2023/01/22 07:07:10;;;;;;;16.63;10.63;;;3.40;99.90;;;;;;7392660;19;20146;-70
2023/01/22 07:09:36;;;;;;;15.53;9.47;;;3.40;99.90;;;;;;7393195;19;20218;-70
2023/01/22 07:12:02;;;;;;;16.03;9.57;;;2.80;99.90;;;;;;7389715;19;20138;-70
2023/01/22 07:14:29;;;;;;;16.70;10.00;;;3.00;99.90;;;;;;7390471;19;20545;-69
2023/01/22 07:16:55;;;;;;;14.70;9.20;;;3.20;99.90;;;;;;7391502;19;20535;-70
2023/01/22 07:19:22;;;;;;;17.97;10.27;;;3.30;99.90;;;;;;7393253;19;20586;-70
2023/01/22 07:21:47;;;;;;;14.47;8.93;;;3.40;99.90;;;;;;7392841;19;20135;-70
2023/01/22 07:24:13;;;;;;;13.90;8.97;;;3.40;99.90;;;;;;7392586;19;20553;-71
2023/01/22 07:26:39;;;;;;;16.27;9.87;;;3.40;99.90;;;;;;7391693;19;20143;-69
2023/01/22 07:29:05;;;;;;;15.30;9.37;;;3.40;99.90;;;;;;7391857;19;20599;-70
2023/01/22 07:31:31;;;;;;;14.07;9.60;;;3.40;99.90;;;;;;7392181;19;20162;-71
2023/01/22 07:33:57;;;;;;;15.30;9.60;;;3.40;99.90;;;;;;7390134;19;20145;-69
2023/01/22 07:36:23;;;;;;;16.67;10.10;;;3.40;99.90;;;;;;7393101;19;20250;-70
2023/01/22 07:38:48;;;;;;;16.43;10.00;;;3.40;99.90;;;;;;7389222;19;20487;-70
2023/01/22 07:41:14;;;;;;;14.43;8.93;;;3.40;99.90;;;;;;7390722;19;20496;-70
2023/01/22 07:43:40;;;;;;;15.00;9.60;;;3.40;99.90;;;;;;7391144;19;20130;-70
2023/01/22 07:46:06;;;;;;;16.77;10.27;;;3.40;99.90;;;;;;7392614;19;20149;-70
2023/01/22 07:48:32;;;;;;;17.40;10.17;;;3.40;99.90;;;;;;7390172;19;20167;-70
2023/01/22 07:51:01;;;;;;;15.57;9.93;;;3.30;99.90;;;;;;7390290;19;20158;-70
2023/01/22 07:53:27;;;;;;;18.60;10.67;;;3.30;99.90;;;;;;7388572;19;20150;-71
2023/01/22 07:55:53;;;;;;;13.03;9.20;;;3.40;99.90;;;;;;7389354;19;20154;-70
2023/01/22 07:58:19;;;;;;;16.47;9.87;;;3.50;99.90;;;;;;7386214;19;20241;-71
2023/01/22 08:00:45;;;;;;;21.30;10.43;;;3.50;99.90;;;;;;7371322;19;20181;-70
2023/01/22 08:03:13;;;;;;;17.50;10.50;;;3.50;99.90;;;;;;7382575;19;20158;-71
2023/01/22 08:05:40;;;;;;;16.63;9.93;;;3.50;99.90;;;;;;7387884;19;20469;-70
2023/01/22 08:08:11;;;;;;;13.40;9.50;;;3.50;99.90;;;;;;7385679;19;20142;-70
2023/01/22 08:10:37;;;;;;;16.97;10.73;;;3.60;99.90;;;;;;7388048;19;20127;-70
2023/01/22 08:13:03;;;;;;;15.37;9.80;;;3.60;99.90;;;;;;7389596;19;20665;-70
2023/01/22 08:15:30;;;;;;;15.57;9.87;;;3.60;99.90;;;;;;7384438;19;20150;-69
2023/01/22 08:17:56;;;;;;;15.93;9.90;;;3.50;99.90;;;;;;7389276;19;20138;-69
2023/01/22 08:20:22;;;;;;;18.73;10.90;;;3.50;99.90;;;;;;7388844;19;20202;-69
2023/01/22 08:22:47;;;;;;;15.97;9.77;;;3.60;99.90;;;;;;7387186;19;20126;-70
2023/01/22 08:25:13;;;;;;;16.03;9.57;;;3.60;99.90;;;;;;7385988;19;20539;-71
2023/01/22 08:27:40;;;;;;;15.30;9.47;;;3.60;99.90;;;;;;7388329;19;20157;-68
2023/01/22 08:30:07;;;;;;;15.73;9.13;;;3.70;99.90;;;;;;7386618;19;20776;-70
2023/01/22 08:32:33;;;;;;;16.47;9.57;;;3.60;99.90;;;;;;7388148;19;20235;-69
2023/01/22 08:34:59;;;;;;;14.80;9.83;;;3.60;99.90;;;;;;7381623;19;20118;-70
2023/01/22 08:37:25;;;;;;;15.50;9.47;;;3.60;99.90;;;;;;7384962;19;20150;-72
2023/01/22 08:39:51;;;;;;;15.40;10.10;;;3.50;99.90;;;;;;7388424;19;20151;-70
2023/01/22 08:42:16;;;;;;;15.17;9.80;;;3.50;99.90;;;;;;7381539;19;20130;-71
2023/01/22 08:44:42;;;;;;;15.23;9.17;;;3.60;99.90;;;;;;7387507;19;20520;-68
2023/01/22 08:47:10;;;;;;;14.77;9.33;;;3.60;99.90;;;;;;7384783;19;20587;-70
2023/01/22 08:49:36;;;;;;;16.60;10.10;;;3.60;99.90;;;;;;7386388;19;20138;-69
2023/01/22 08:52:01;;;;;;;16.37;10.00;;;3.70;99.90;;;;;;7385132;19;20671;-70
2023/01/22 08:54:27;;;;;;;18.00;10.43;;;3.60;99.90;;;;;;7384530;19;20158;-71
2023/01/22 08:56:53;;;;;;;16.17;10.00;;;3.60;99.90;;;;;;7387270;19;20131;-69
2023/01/22 08:59:19;;;;;;;15.80;9.97;;;3.60;99.90;;;;;;7386119;19;20123;-69
2023/01/22 09:01:44;;;;;;;13.77;9.83;;;3.60;99.90;;;;;;7381694;19;20172;-69
2023/01/22 09:04:10;;;;;;;17.27;10.60;;;3.60;99.90;;;;;;7385250;19;20140;-71
2023/01/22 09:06:37;;;;;;;15.70;10.53;;;3.60;99.90;;;;;;7385887;19;20629;-69
2023/01/22 09:09:05;;;;;;;15.90;9.27;;;3.70;99.90;;;;;;7386118;19;20142;-69
2023/01/22 09:11:31;;;;;;;15.97;9.30;;;3.70;99.90;;;;;;7390515;19;20135;-71
2023/01/22 09:13:57;;;;;;;17.60;10.57;;;3.70;99.90;;;;;;7389143;19;20138;-69
2023/01/22 09:16:24;;;;;;;17.37;10.17;;;3.60;99.90;;;;;;7387642;19;20160;-70
2023/01/22 09:18:49;;;;;;;16.77;10.43;;;3.60;99.90;;;;;;7389427;19;20161;-70
2023/01/22 09:21:15;;;;;;;17.83;11.17;;;3.60;99.90;;;;;;7385886;19;20143;-69
2023/01/22 09:23:41;;;;;;;17.73;10.13;;;3.60;99.90;;;;;;7388277;19;20537;-70
2023/01/22 09:26:07;;;;;;;15.33;9.87;;;3.20;99.90;;;;;;7393298;19;20147;-70
2023/01/22 09:28:32;;;;;;;15.03;10.30;;;3.40;99.90;;;;;;7392670;19;20572;-69
2023/01/22 09:30:58;;;;;;;16.57;10.07;;;3.40;99.90;;;;;;7393088;19;20130;-70
2023/01/22 09:33:24;;;;;;;15.63;9.87;;;3.60;99.90;;;;;;7388232;19;20597;-71
2023/01/22 09:35:49;;;;;;;17.77;10.43;;;3.60;99.90;;;;;;7390085;19;20171;-70
2023/01/22 09:38:17;;;;;;;16.03;9.93;;;3.60;99.90;;;;;;7390418;19;20476;-71
2023/01/22 09:40:51;;;;;;;18.77;10.27;;;3.60;99.90;;;;;;7389923;19;20134;-71
2023/01/22 09:43:29;;;;;;;16.03;9.83;;;3.50;99.90;;;;;;7385541;19;20127;-72
2023/01/22 09:46:00;;;;;;;18.73;10.20;;;3.70;99.90;;;;;;7388565;19;20161;-72
2023/01/22 09:48:35;;;;;;;17.40;10.43;;;3.80;99.90;;;;;;7384204;19;20975;-71
2023/01/22 09:51:01;;;;;;;15.30;10.23;;;3.80;99.90;;;;;;7388343;19;20578;-72
2023/01/22 09:53:28;;;;;;;16.27;10.13;;;3.90;99.90;;;;;;7389025;19;20636;-70
2023/01/22 09:55:57;;;;;;;18.77;10.07;;;3.90;99.90;;;;;;7385460;19;20245;-71
2023/01/22 09:58:24;;;;;;;19.17;11.13;;;3.80;99.90;;;;;;7388959;19;20135;-69
2023/01/22 10:00:56;;;;;;;18.67;10.60;;;3.90;99.90;;;;;;7387162;19;20151;-70
2023/01/22 10:03:29;;;;;;;17.73;10.20;;;3.90;99.90;;;;;;7385496;19;20158;-72
2023/01/22 10:05:59;;;;;;;17.23;10.77;;;3.80;99.90;;;;;;7386348;19;20134;-72
2023/01/22 10:08:31;;;;;;;18.07;10.07;;;3.70;99.90;;;;;;7389380;19;20131;-72
2023/01/22 10:10:59;;;;;;;15.47;9.60;;;3.70;99.90;;;;;;7388821;19;20164;-71
2023/01/22 10:13:34;;;;;;;18.87;10.60;;;3.70;99.90;;;;;;7382830;19;20123;-71
2023/01/22 10:16:00;;;;;;;15.23;9.83;;;3.90;99.90;;;;;;7388666;19;20159;-73
2023/01/22 10:18:30;;;;;;;18.73;10.80;;;3.80;99.90;;;;;;7387974;19;20130;-71
2023/01/22 10:20:59;;;;;;;17.17;9.73;;;3.80;99.90;;;;;;7388319;19;20163;-73
2023/01/22 10:23:25;;;;;;;15.93;10.03;;;3.90;99.90;;;;;;7382212;19;20210;-71
2023/01/22 10:26:16;;;;;;;17.80;10.00;;;4.00;99.90;;;;;;7387123;19;20754;-72
2023/01/22 10:28:45;;;;;;;15.63;9.07;;;4.00;99.90;;;;;;7385828;19;20640;-72
2023/01/22 10:31:30;;;;;;;15.50;9.63;;;4.10;99.90;;;;;;7386860;19;20199;-70
2023/01/22 10:34:08;;;;;;;16.97;9.53;;;4.10;99.90;;;;;;7383760;19;20218;-71
2023/01/22 10:36:34;;;;;;;14.93;8.83;;;4.10;99.90;;;;;;7385069;19;20587;-71
2023/01/22 10:39:08;;;;;;;14.33;9.07;;;4.10;99.90;;;;;;7384050;19;20142;-71
2023/01/22 10:41:34;;;;;;;16.37;9.90;;;4.10;99.90;;;;;;7385862;19;20159;-72
2023/01/22 10:44:18;;;;;;;15.00;9.30;;;4.10;99.90;;;;;;7378481;19;21024;-71
2023/01/22 10:46:45;;;;;;;13.90;9.00;;;4.20;99.90;;;;;;7375364;19;20483;-72
2023/01/22 10:49:17;;;;;;;15.30;9.03;;;4.10;99.90;;;;;;7381390;19;20141;-73
2023/01/22 10:51:55;;;;;;;15.30;9.20;;;4.20;99.90;;;;;;7381976;19;20145;-73
2023/01/22 10:54:40;;;;;;;13.80;9.50;;;4.10;99.90;;;;;;7377218;19;20210;-74
2023/01/22 10:57:21;;;;;;;14.77;9.60;;;4.10;99.90;;;;;;7383495;19;20543;-71
2023/01/22 11:00:21;;;;;;;17.30;8.80;;;4.10;99.90;;;;;;7380811;19;20192;-72
2023/01/22 11:02:50;;;;;;;14.63;8.90;;;4.10;99.90;;;;;;7383411;19;20152;-70
2023/01/22 11:05:16;;;;;;;13.57;8.90;;;4.30;99.90;;;;;;7383127;19;20138;-72
2023/01/22 11:07:42;;;;;;;14.13;8.90;;;4.30;99.90;;;;;;7385011;19;20135;-70
2023/01/22 11:10:31;;;;;;;12.77;8.67;;;4.30;99.90;;;;;;7384431;19;20153;-71
2023/01/22 11:13:10;;;;;;;14.03;8.27;;;4.30;99.90;;;;;;7383236;19;20769;-71
2023/01/22 11:16:15;;;;;;;14.97;9.17;;;4.30;99.90;;;;;;7379963;19;20603;-72
2023/01/22 11:19:10;;;;;;;15.13;9.43;;;4.20;99.90;;;;;;7379126;19;20655;-72
2023/01/22 11:21:52;;;;;;;15.47;8.73;;;4.30;99.90;;;;;;7382412;19;20845;-71
2023/01/22 11:24:23;;;;;;;14.03;8.73;;;4.40;99.90;;;;;;7382812;19;20131;-73
2023/01/22 11:27:11;;;;;;;15.37;9.57;;;4.40;99.90;;;;;;7380140;19;20199;-71
2023/01/22 11:30:11;;;;;;;15.53;8.83;;;4.40;99.90;;;;;;7383051;19;20477;-72
2023/01/22 11:32:57;;;;;;;13.77;8.70;;;4.30;99.90;;;;;;7384651;19;20661;-72
2023/01/22 11:35:42;;;;;;;14.40;9.10;;;4.30;99.90;;;;;;7378062;19;20566;-71
2023/01/22 11:38:42;;;;;;;13.53;8.70;;;4.30;99.90;;;;;;7385736;19;20479;-72
2023/01/22 11:41:26;;;;;;;14.47;8.50;;;4.30;99.90;;;;;;7385221;19;20135;-71
2023/01/22 11:44:04;;;;;;;14.50;8.13;;;4.30;99.90;;;;;;7385213;19;20604;-72
2023/01/22 11:46:41;;;;;;;14.63;8.73;;;4.40;99.90;;;;;;7382558;19;20137;-71
2023/01/22 11:49:34;;;;;;;12.67;8.70;;;4.30;99.90;;;;;;7385763;19;20126;-72
2023/01/22 11:52:20;;;;;;;15.77;9.20;;;4.30;99.90;;;;;;7384526;19;20134;-72
2023/01/22 11:55:07;;;;;;;14.83;8.77;;;4.30;99.90;;;;;;7380255;19;20161;-71
2023/01/22 11:57:40;;;;;;;14.93;9.20;;;4.30;99.90;;;;;;7383628;19;20147;-72
2023/01/22 12:00:46;;;;;;;12.83;8.50;;;4.30;99.90;;;;;;7385928;19;20607;-70
2023/01/22 12:03:34;;;;;;;11.23;7.43;;;4.30;99.90;;;;;;7385080;19;20138;-73
2023/01/22 12:06:37;;;;;;;12.87;8.23;;;4.30;99.90;;;;;;7386202;19;20163;-74
2023/01/22 12:09:07;;;;;;;12.83;7.83;;;4.30;99.90;;;;;;7387799;19;20167;-73
2023/01/22 12:11:45;;;;;;;13.47;8.27;;;4.30;99.90;;;;;;7388445;19;20598;-73
2023/01/22 12:14:29;;;;;;;13.23;8.90;;;4.30;99.90;;;;;;7384713;19;20174;-73
2023/01/22 12:17:13;;;;;;;12.67;8.20;;;4.30;99.90;;;;;;7384245;19;20196;-72
2023/01/22 12:20:07;;;;;;;13.20;8.87;;;4.30;99.90;;;;;;7385706;19;20137;-75
2023/01/22 12:22:56;;;;;;;14.03;8.93;;;4.40;99.90;;;;;;7386621;19;20627;-73
2023/01/22 12:25:47;;;;;;;12.90;7.80;;;4.50;99.90;;;;;;7385292;19;20155;-74
2023/01/22 12:28:20;;;;;;;14.03;8.00;;;4.50;99.90;;;;;;7383505;19;20150;-72
2023/01/22 12:31:09;;;;;;;11.50;7.47;;;4.50;99.90;;;;;;7384819;19;20134;-72
2023/01/22 12:33:40;;;;;;;12.53;8.17;;;4.50;99.90;;;;;;7379907;19;20155;-71
2023/01/22 12:36:08;;;;;;;12.70;8.07;;;4.50;99.90;;;;;;7382369;19;20221;-71
2023/01/22 12:38:41;;;;;;;11.57;7.60;;;4.50;99.90;;;;;;7382486;19;20463;-74
2023/01/22 12:41:23;;;;;;;13.57;8.07;;;4.40;99.90;;;;;;7384793;19;20161;-73
2023/01/22 12:43:55;;;;;;;10.80;7.43;;;4.50;99.90;;;;;;7380965;19;20130;-73
2023/01/22 12:46:52;;;;;;;12.53;7.43;;;4.50;99.90;;;;;;7385643;19;20137;-72
2023/01/22 12:49:19;;;;;;;13.03;7.70;;;4.50;99.90;;;;;;7390844;19;20131;-76
2023/01/22 12:51:50;;;;;;;12.07;7.77;;;4.60;99.90;;;;;;7389285;19;20131;-71
2023/01/22 12:54:35;;;;;;;10.70;7.23;;;4.60;99.90;;;;;;7388535;19;20126;-74
2023/01/22 12:57:12;;;;;;;13.87;8.03;;;4.50;99.90;;;;;;7390572;19;20130;-72
2023/01/22 12:59:38;;;;;;;12.67;7.97;;;4.50;99.90;;;;;;7387249;19;20172;-77
2023/01/22 13:02:22;;;;;;;15.00;7.80;;;4.50;99.90;;;;;;7390437;19;20509;-72
2023/01/22 13:04:48;;;;;;;12.53;7.87;;;4.40;99.90;;;;;;7381609;19;20221;-71